Time;durP1;ratioP1;P1;durP2;ratioP2;P2;SDS_P1;SDS_P2;PMS_P1;PMS_P2;Temp;Humidity;BMP_temperature;BMP_pressure;BME280_temperature;BME280_humidity;BME280_pressure;Samples;Min_cycle;Max_cycle;Signal;HPM_P1;HPM_P2
2023/04/22 00:03:14;;;;;;;20.83;16.15;;;;;;;;;;4936474;29;20542;-66
2023/04/22 00:05:41;;;;;;;19.65;15.95;;;;;;;;;;4936348;29;20052;-66
2023/04/22 00:08:07;;;;;;;21.75;16.73;;;;;;;;;;4936100;29;20060;-66
2023/04/22 00:10:34;;;;;;;25.13;18.50;;;;;;;;;;4936169;29;20276;-66
2023/04/22 00:13:00;;;;;;;22.98;17.45;;;;;;;;;;4936350;29;20134;-66
2023/04/22 00:15:27;;;;;;;21.63;16.55;;;;;;;;;;4936222;29;20051;-66
2023/04/22 00:17:53;;;;;;;22.15;16.23;;;;;;;;;;4936526;29;20047;-66
2023/04/22 00:20:22;;;;;;;21.40;16.15;;;;;;;;;;4936233;29;20075;-65
2023/04/22 00:22:49;;;;;;;18.63;15.43;;;;;;;;;;4936073;29;20487;-65
2023/04/22 00:25:15;;;;;;;16.02;13.38;;;;;;;;;;4935838;29;20085;-65
2023/04/22 00:27:42;;;;;;;13.20;11.88;;;;;;;;;;4935940;29;20054;-65
2023/04/22 00:30:08;;;;;;;15.52;13.93;;;;;;;;;;4935770;29;20126;-65
2023/04/22 00:32:35;;;;;;;14.68;12.93;;;;;;;;;;4936067;29;20063;-66
2023/04/22 00:35:01;;;;;;;15.15;13.13;;;;;;;;;;4935989;29;20056;-66
2023/04/22 00:37:28;;;;;;;16.48;13.65;;;;;;;;;;4935640;29;20083;-66
2023/04/22 00:39:54;;;;;;;14.20;12.70;;;;;;;;;;4935504;29;20506;-65
2023/04/22 00:42:21;;;;;;;13.20;11.80;;;;;;;;;;4935149;29;20476;-66
2023/04/22 00:44:47;;;;;;;12.40;11.23;;;;;;;;;;4935708;29;20055;-66
2023/04/22 00:47:14;;;;;;;13.02;11.73;;;;;;;;;;4935544;29;20043;-66
2023/04/22 00:49:42;;;;;;;13.57;12.27;;;;;;;;;;4935099;29;20566;-66
2023/04/22 00:52:08;;;;;;;12.63;11.32;;;;;;;;;;4935078;29;20055;-66
2023/04/22 00:54:35;;;;;;;12.80;11.50;;;;;;;;;;4935628;29;20060;-65
2023/04/22 01:00:15;;;;;;;13.80;12.00;;;;;;;;;;4935144;29;20061;-66
2023/04/22 01:06:04;;;;;;;13.32;11.57;;;;;;;;;;4935063;29;20447;-66
2023/04/22 01:08:50;;;;;;;13.23;11.52;;;;;;;;;;4935377;29;20114;-66
2023/04/22 01:11:17;;;;;;;13.60;12.20;;;;;;;;;;4935007;29;20090;-66
2023/04/22 01:13:44;;;;;;;13.73;12.32;;;;;;;;;;4934353;29;20222;-65
2023/04/22 01:16:10;;;;;;;13.73;12.38;;;;;;;;;;4934754;29;20412;-66
2023/04/22 01:18:37;;;;;;;13.50;12.10;;;;;;;;;;4935442;29;20044;-66
2023/04/22 01:21:03;;;;;;;15.07;12.10;;;;;;;;;;4934698;29;20502;-66
2023/04/22 01:23:30;;;;;;;12.77;11.48;;;;;;;;;;4935141;29;20078;-66
2023/04/22 01:25:56;;;;;;;13.48;12.13;;;;;;;;;;4935035;29;20054;-66
2023/04/22 01:28:23;;;;;;;13.38;12.07;;;;;;;;;;4934926;29;20490;-66
2023/04/22 01:30:49;;;;;;;12.85;11.55;;;;;;;;;;4934578;29;20048;-66
2023/04/22 01:33:16;;;;;;;13.20;11.90;;;;;;;;;;4934987;29;20154;-66
2023/04/22 01:35:42;;;;;;;12.55;11.00;;;;;;;;;;4934655;29;20060;-66
2023/04/22 01:38:09;;;;;;;13.00;11.60;;;;;;;;;;4934948;29;20144;-66
2023/04/22 01:40:36;;;;;;;12.60;10.40;;;;;;;;;;4934671;29;20058;-65
2023/04/22 01:43:03;;;;;;;11.90;10.68;;;;;;;;;;4934649;29;20083;-65
2023/04/22 01:45:30;;;;;;;12.32;11.00;;;;;;;;;;4934847;29;20134;-66
2023/04/22 01:47:56;;;;;;;12.40;11.10;;;;;;;;;;4934660;29;20047;-66
2023/04/22 01:50:23;;;;;;;12.55;11.23;;;;;;;;;;4934449;29;20192;-65
2023/04/22 01:52:49;;;;;;;12.52;11.23;;;;;;;;;;4934570;29;20106;-65
2023/04/22 01:55:16;;;;;;;13.25;11.85;;;;;;;;;;4934412;29;20098;-66
2023/04/22 01:57:42;;;;;;;13.32;12.02;;;;;;;;;;4934610;29;20145;-66
2023/04/22 02:00:09;;;;;;;12.10;10.90;;;;;;;;;;4934140;29;20484;-65
2023/04/22 02:02:35;;;;;;;12.25;10.75;;;;;;;;;;4934285;29;20491;-66
2023/04/22 02:05:02;;;;;;;12.15;10.93;;;;;;;;;;4934127;29;20058;-65
2023/04/22 02:07:28;;;;;;;13.20;11.82;;;;;;;;;;4934114;29;20083;-66
2023/04/22 02:09:55;;;;;;;12.68;11.35;;;;;;;;;;4934167;29;20071;-65
2023/04/22 02:12:21;;;;;;;13.13;11.82;;;;;;;;;;4934247;29;20056;-66
2023/04/22 02:14:47;;;;;;;13.98;12.05;;;;;;;;;;4934162;29;20139;-65
2023/04/22 02:17:16;;;;;;;12.85;11.48;;;;;;;;;;4934156;29;20675;-66
2023/04/22 02:19:43;;;;;;;12.30;11.10;;;;;;;;;;4934098;29;20147;-65
2023/04/22 02:22:09;;;;;;;12.70;11.45;;;;;;;;;;4938267;29;20056;-66
2023/04/22 02:24:35;;;;;;;11.55;10.35;;;;;;;;;;4938248;29;20155;-66
2023/04/22 02:27:02;;;;;;;12.52;11.20;;;;;;;;;;4938049;29;20054;-66
2023/04/22 02:29:30;;;;;;;11.70;10.30;;;;;;;;;;4937987;29;20052;-66
2023/04/22 02:31:58;;;;;;;13.18;11.20;;;;;;;;;;4938206;29;20067;-65
2023/04/22 02:34:25;;;;;;;;;;;;;;;;;;4938255;29;20047;-66
2023/04/22 02:36:51;;;;;;;11.82;10.63;;;;;;;;;;4938002;29;19926;-66
2023/04/22 02:39:17;;;;;;;12.25;10.43;;;;;;;;;;4937732;29;20480;-66
2023/04/22 02:41:44;;;;;;;11.75;10.57;;;;;;;;;;4937778;29;20058;-65
2023/04/22 02:44:10;;;;;;;12.00;10.73;;;;;;;;;;4937587;29;20048;-66
2023/04/22 02:46:36;;;;;;;12.13;10.88;;;;;;;;;;4937598;29;20048;-66
2023/04/22 02:49:03;;;;;;;11.93;10.82;;;;;;;;;;4937779;29;20048;-66
2023/04/22 02:51:30;;;;;;;12.57;11.30;;;;;;;;;;4937711;29;20051;-66
2023/04/22 02:53:57;;;;;;;14.15;11.65;;;;;;;;;;4937861;29;20381;-66
2023/04/22 02:56:23;;;;;;;13.05;11.65;;;;;;;;;;4937492;29;20150;-66
2023/04/22 02:58:49;;;;;;;13.52;11.25;;;;;;;;;;4937737;29;20138;-65
2023/04/22 03:01:16;;;;;;;13.00;11.60;;;;;;;;;;4937709;29;20408;-66
2023/04/22 03:03:42;;;;;;;11.95;10.45;;;;;;;;;;4937453;29;20050;-65
2023/04/22 03:06:09;;;;;;;12.70;11.23;;;;;;;;;;4936964;29;20051;-65
2023/04/22 03:08:36;;;;;;;12.68;11.38;;;;;;;;;;4937241;29;20147;-65
2023/04/22 03:11:03;;;;;;;11.38;10.15;;;;;;;;;;4937202;29;20062;-65
2023/04/22 03:13:29;;;;;;;13.30;11.90;;;;;;;;;;4937202;29;20058;-65
2023/04/22 03:15:56;;;;;;;16.98;13.45;;;;;;;;;;4937334;29;20056;-65
2023/04/22 03:18:22;;;;;;;19.58;14.23;;;;;;;;;;4937422;29;20083;-65
2023/04/22 03:20:48;;;;;;;16.90;13.07;;;;;;;;;;4937139;29;20052;-66
2023/04/22 03:23:15;;;;;;;15.63;12.77;;;;;;;;;;4937155;29;20519;-65
2023/04/22 03:25:41;;;;;;;15.43;12.68;;;;;;;;;;4937152;29;20046;-65
2023/04/22 03:28:07;;;;;;;16.83;13.10;;;;;;;;;;4937300;29;20362;-65
2023/04/22 03:30:34;;;;;;;15.82;12.88;;;;;;;;;;4936941;29;20087;-66
2023/04/22 03:33:00;;;;;;;15.32;12.40;;;;;;;;;;4936022;29;20077;-65
2023/04/22 03:35:27;;;;;;;16.98;12.52;;;;;;;;;;4936880;29;20052;-66
2023/04/22 03:37:53;;;;;;;16.02;13.38;;;;;;;;;;4936903;29;20134;-66
2023/04/22 03:40:19;;;;;;;18.20;13.68;;;;;;;;;;4936700;29;20075;-65
2023/04/22 03:42:46;;;;;;;17.92;13.45;;;;;;;;;;4936943;29;20122;-66
2023/04/22 03:45:13;;;;;;;16.00;12.23;;;;;;;;;;4937053;29;20389;-65
2023/04/22 03:47:45;;;;;;;16.33;12.40;;;;;;;;;;4936639;29;20143;-66
2023/04/22 03:50:11;;;;;;;14.50;11.95;;;;;;;;;;4936697;29;20094;-66
2023/04/22 03:52:38;;;;;;;14.27;12.00;;;;;;;;;;4936732;29;20079;-66
2023/04/22 03:55:04;;;;;;;18.50;13.23;;;;;;;;;;4936470;29;20051;-66
2023/04/22 03:57:31;;;;;;;20.65;13.32;;;;;;;;;;4936408;29;20111;-66
2023/04/22 03:59:57;;;;;;;17.70;12.70;;;;;;;;;;4936381;29;20047;-65
2023/04/22 04:02:24;;;;;;;23.95;14.50;;;;;;;;;;4936718;29;20047;-66
2023/04/22 04:04:50;;;;;;;22.83;13.73;;;;;;;;;;4936498;29;20050;-65
2023/04/22 04:07:17;;;;;;;23.55;14.15;;;;;;;;;;4936233;29;20448;-65
2023/04/22 04:09:44;;;;;;;22.10;13.88;;;;;;;;;;4936473;29;20114;-66
2023/04/22 04:12:10;;;;;;;24.58;15.43;;;;;;;;;;4936461;29;20059;-66
2023/04/22 04:14:36;;;;;;;26.50;15.73;;;;;;;;;;4936233;29;20060;-65
2023/04/22 04:17:03;;;;;;;30.33;15.63;;;;;;;;;;4936108;29;20062;-66
2023/04/22 04:19:29;;;;;;;27.23;15.70;;;;;;;;;;4936325;29;20062;-65
2023/04/22 04:21:56;;;;;;;32.08;16.98;;;;;;;;;;4936152;29;20052;-65
2023/04/22 04:24:22;;;;;;;35.65;16.27;;;;;;;;;;4936021;29;20044;-66
2023/04/22 04:26:48;;;;;;;37.63;17.08;;;;;;;;;;4935909;29;20055;-65
2023/04/22 04:29:15;;;;;;;32.47;17.20;;;;;;;;;;4935813;29;20537;-66
2023/04/22 04:31:41;;;;;;;30.38;17.55;;;;;;;;;;4936058;29;20061;-65
2023/04/22 04:34:08;;;;;;;36.80;18.38;;;;;;;;;;4935935;29;20114;-65
2023/04/22 04:36:34;;;;;;;30.02;17.38;;;;;;;;;;4935911;29;20051;-66
2023/04/22 04:39:00;;;;;;;27.27;16.67;;;;;;;;;;4935632;29;20055;-65
2023/04/22 04:41:28;;;;;;;35.47;18.42;;;;;;;;;;4935902;29;20062;-66
2023/04/22 04:43:55;;;;;;;31.67;18.10;;;;;;;;;;4935690;29;20094;-65
2023/04/22 04:46:22;;;;;;;34.67;18.05;;;;;;;;;;4935913;29;20138;-65
2023/04/22 04:48:50;;;;;;;37.83;18.27;;;;;;;;;;4935731;29;20099;-66
2023/04/22 04:51:17;;;;;;;39.75;17.95;;;;;;;;;;4935682;29;20444;-65
2023/04/22 04:53:45;;;;;;;45.90;19.25;;;;;;;;;;4935447;29;20412;-66
2023/04/22 04:56:12;;;;;;;48.70;19.13;;;;;;;;;;4935685;29;20055;-66
2023/04/22 04:58:38;;;;;;;32.80;18.17;;;;;;;;;;4935629;29;20107;-66
2023/04/22 05:01:05;;;;;;;38.33;18.00;;;;;;;;;;4935214;29;20052;-66
2023/04/22 05:03:31;;;;;;;23.80;16.80;;;;;;;;;;4935183;29;20492;-66
2023/04/22 05:05:58;;;;;;;42.88;17.42;;;;;;;;;;4935205;29;20059;-66
2023/04/22 05:08:25;;;;;;;42.25;17.90;;;;;;;;;;4934940;29;20056;-66
2023/04/22 05:10:51;;;;;;;64.72;17.67;;;;;;;;;;4935449;29;20047;-66
2023/04/22 05:13:17;;;;;;;33.38;17.70;;;;;;;;;;4935038;29;20544;-66
2023/04/22 05:15:44;;;;;;;73.07;18.42;;;;;;;;;;4935068;29;20055;-65
2023/04/22 05:18:10;;;;;;;39.83;15.45;;;;;;;;;;4935303;29;20243;-66
2023/04/22 05:20:37;;;;;;;65.38;16.05;;;;;;;;;;4935456;29;20051;-66
2023/04/22 05:23:03;;;;;;;26.00;15.73;;;;;;;;;;4935013;29;20510;-66
2023/04/22 05:25:30;;;;;;;60.80;16.85;;;;;;;;;;4934878;29;20062;-66
2023/04/22 05:27:56;;;;;;;26.35;15.50;;;;;;;;;;4934858;29;20052;-66
2023/04/22 05:30:22;;;;;;;55.42;15.43;;;;;;;;;;4935106;29;20047;-66
2023/04/22 05:32:49;;;;;;;37.42;15.88;;;;;;;;;;4934945;29;20057;-66
2023/04/22 05:35:15;;;;;;;41.00;15.02;;;;;;;;;;4934785;29;20051;-65
2023/04/22 05:37:42;;;;;;;35.03;15.77;;;;;;;;;;4934712;29;20063;-66
2023/04/22 05:40:08;;;;;;;41.67;14.85;;;;;;;;;;4934874;29;20051;-66
2023/04/22 05:42:34;;;;;;;24.98;14.73;;;;;;;;;;4935171;29;20051;-66
2023/04/22 05:45:01;;;;;;;37.70;15.35;;;;;;;;;;4934749;29;20044;-65
2023/04/22 05:47:28;;;;;;;31.77;14.85;;;;;;;;;;4934578;29;20093;-65
2023/04/22 05:49:55;;;;;;;26.67;15.43;;;;;;;;;;4934844;29;20396;-66
2023/04/22 05:52:21;;;;;;;26.73;14.68;;;;;;;;;;4933345;29;20135;-65
2023/04/22 05:54:47;;;;;;;35.28;14.98;;;;;;;;;;4933857;29;20504;-65
2023/04/22 05:57:14;;;;;;;20.77;14.38;;;;;;;;;;4934811;29;20424;-65
2023/04/22 05:59:40;;;;;;;32.53;13.48;;;;;;;;;;4934379;29;20051;-65
2023/04/22 06:02:07;;;;;;;43.58;16.20;;;;;;;;;;4933173;29;20055;-65
2023/04/22 06:04:34;;;;;;;39.13;15.40;;;;;;;;;;4934220;29;20056;-65
2023/04/22 06:07:03;;;;;;;33.28;14.35;;;;;;;;;;4934434;29;20389;-66
2023/04/22 06:09:29;;;;;;;16.13;13.45;;;;;;;;;;4934676;29;20047;-65
2023/04/22 06:11:56;;;;;;;20.15;13.82;;;;;;;;;;4934412;29;20054;-65
2023/04/22 06:14:23;;;;;;;17.77;14.30;;;;;;;;;;4934430;29;20448;-65
2023/04/22 06:16:51;;;;;;;20.00;13.60;;;;;;;;;;4934272;29;20396;-65
2023/04/22 06:19:17;;;;;;;19.60;13.10;;;;;;;;;;4934540;29;20051;-66
2023/04/22 06:21:44;;;;;;;16.63;12.82;;;;;;;;;;4934357;29;20052;-65
2023/04/22 06:24:10;;;;;;;14.50;12.32;;;;;;;;;;4934501;29;20051;-65
2023/04/22 06:26:37;;;;;;;14.68;12.63;;;;;;;;;;4934402;29;20071;-66
2023/04/22 06:29:04;;;;;;;18.30;13.45;;;;;;;;;;4934478;29;20050;-66
2023/04/22 06:31:31;;;;;;;17.33;13.73;;;;;;;;;;4934534;29;20167;-66
2023/04/22 06:33:58;;;;;;;26.90;14.30;;;;;;;;;;4934162;29;20063;-66
2023/04/22 06:36:26;;;;;;;18.55;14.60;;;;;;;;;;4934200;29;20055;-66
2023/04/22 06:38:55;;;;;;;22.98;15.80;;;;;;;;;;4934253;29;20107;-65
2023/04/22 06:41:22;;;;;;;25.40;15.07;;;;;;;;;;4934342;29;20054;-66
2023/04/22 06:43:48;;;;;;;34.08;15.98;;;;;;;;;;4934225;29;20489;-66
2023/04/22 06:46:15;;;;;;;38.60;15.77;;;;;;;;;;4934224;29;20153;-66
2023/04/22 06:48:42;;;;;;;28.48;15.57;;;;;;;;;;4934245;29;20126;-66
2023/04/22 06:51:08;;;;;;;46.92;16.33;;;;;;;;;;4934044;29;20135;-66
2023/04/22 06:53:34;;;;;;;25.15;15.73;;;;;;;;;;4934003;29;20056;-66
2023/04/22 06:56:01;;;;;;;31.38;16.90;;;;;;;;;;4934119;29;20064;-66
2023/04/22 06:58:27;;;;;;;51.25;17.45;;;;;;;;;;4933792;29;20143;-65
2023/04/22 07:00:53;;;;;;;85.60;19.30;;;;;;;;;;4933727;29;20078;-66
2023/04/22 07:03:20;;;;;;;75.00;18.58;;;;;;;;;;4934217;29;20408;-66
2023/04/22 07:05:47;;;;;;;40.08;16.52;;;;;;;;;;4934096;29;20203;-65
2023/04/22 07:08:13;;;;;;;78.77;20.47;;;;;;;;;;4937213;29;20055;-65
2023/04/22 07:10:40;;;;;;;54.22;17.42;;;;;;;;;;4937561;29;20340;-65
2023/04/22 07:13:06;;;;;;;62.63;17.48;;;;;;;;;;4937493;29;20266;-66
2023/04/22 07:15:33;;;;;;;63.97;18.70;;;;;;;;;;4937397;29;20051;-66
2023/04/22 07:17:59;;;;;;;43.30;16.67;;;;;;;;;;4937353;29;20073;-66
2023/04/22 07:20:26;;;;;;;31.90;15.70;;;;;;;;;;4937050;29;20063;-66
2023/04/22 07:22:52;;;;;;;36.50;16.05;;;;;;;;;;4937096;29;20051;-66
2023/04/22 07:25:18;;;;;;;31.58;15.50;;;;;;;;;;4937088;29;20047;-66
2023/04/22 07:27:45;;;;;;;48.10;17.35;;;;;;;;;;4936668;29;20044;-66
2023/04/22 07:30:12;;;;;;;19.20;16.67;;;;;;;;;;4923596;29;20054;-66
2023/04/22 07:32:38;;;;;;;32.15;17.48;;;;;;;;;;4937284;29;20059;-66
2023/04/22 07:35:05;;;;;;;54.92;18.23;;;;;;;;;;4936813;29;20500;-66
2023/04/22 07:37:32;;;;;;;35.60;17.13;;;;;;;;;;4936623;29;20428;-66
2023/04/22 07:39:58;;;;;;;26.77;17.77;;;;;;;;;;4930345;29;20051;-68
2023/04/22 07:42:25;;;;;;;25.35;17.33;;;;;;;;;;4936581;29;20098;-70
2023/04/22 07:44:51;;;;;;;31.90;17.90;;;;;;;;;;4936977;29;20075;-68
2023/04/22 07:47:17;;;;;;;29.23;17.83;;;;;;;;;;4922237;29;20498;-67
2023/04/22 07:49:44;;;;;;;34.28;19.00;;;;;;;;;;4917801;29;20155;-68
2023/04/22 07:52:10;;;;;;;28.52;18.55;;;;;;;;;;4934886;29;20521;-66
2023/04/22 07:54:37;;;;;;;40.53;19.10;;;;;;;;;;4936430;29;20051;-67
2023/04/22 07:57:03;;;;;;;26.27;18.65;;;;;;;;;;4936343;29;20048;-69
2023/04/22 07:59:30;;;;;;;27.88;18.55;;;;;;;;;;4936370;29;20099;-66
2023/04/22 08:01:56;;;;;;;27.10;18.13;;;;;;;;;;4934729;29;20591;-67
2023/04/22 08:04:22;;;;;;;31.40;19.38;;;;;;;;;;4929263;29;20096;-68
2023/04/22 08:06:49;;;;;;;24.23;18.15;;;;;;;;;;4930291;29;20131;-67
2023/04/22 08:09:16;;;;;;;22.42;16.83;;;;;;;;;;4928643;29;20103;-68
2023/04/22 08:11:42;;;;;;;29.55;18.17;;;;;;;;;;4923021;29;20415;-66
2023/04/22 08:14:09;;;;;;;20.02;17.02;;;;;;;;;;4924469;29;20146;-67
2023/04/22 08:16:36;;;;;;;20.02;17.38;;;;;;;;;;4935798;29;20058;-66
2023/04/22 08:19:02;;;;;;;20.98;17.95;;;;;;;;;;4935748;29;20057;-65
2023/04/22 08:21:30;;;;;;;17.95;15.93;;;;;;;;;;4935922;29;20083;-66
2023/04/22 08:23:56;;;;;;;20.08;17.80;;;;;;;;;;4935976;29;20796;-66
2023/04/22 08:26:22;;;;;;;18.05;16.25;;;;;;;;;;4935981;29;20047;-66
2023/04/22 08:28:49;;;;;;;17.92;16.08;;;;;;;;;;4935989;29;20051;-66
2023/04/22 08:31:15;;;;;;;16.88;15.20;;;;;;;;;;4936448;29;20054;-67
2023/04/22 08:33:42;;;;;;;18.02;16.13;;;;;;;;;;4935877;29;20509;-66
2023/04/22 08:36:09;;;;;;;18.27;16.33;;;;;;;;;;4934478;29;20052;-66
2023/04/22 08:38:36;;;;;;;18.13;16.25;;;;;;;;;;4932816;29;20492;-69
2023/04/22 08:41:04;;;;;;;17.15;15.45;;;;;;;;;;4919866;29;20062;-67
2023/04/22 08:43:31;;;;;;;17.88;15.75;;;;;;;;;;4918593;29;20076;-67
2023/04/22 08:45:57;;;;;;;18.27;16.48;;;;;;;;;;4926632;29;20056;-66
2023/04/22 08:48:24;;;;;;;17.95;16.02;;;;;;;;;;4935302;29;20066;-67
2023/04/22 08:50:52;;;;;;;17.65;15.98;;;;;;;;;;4935309;29;20134;-67
2023/04/22 08:53:21;;;;;;;17.27;15.52;;;;;;;;;;4935134;29;20059;-67
2023/04/22 08:55:50;;;;;;;17.05;15.38;;;;;;;;;;4921796;29;20048;-66
2023/04/22 08:58:16;;;;;;;16.48;14.80;;;;;;;;;;4926438;29;20052;-67
2023/04/22 09:00:43;;;;;;;16.17;14.68;;;;;;;;;;4934935;29;20166;-68
2023/04/22 09:03:10;;;;;;;16.48;14.77;;;;;;;;;;4934639;29;20058;-66
2023/04/22 09:05:38;;;;;;;15.88;14.38;;;;;;;;;;4934826;29;20052;-67
2023/04/22 09:08:06;;;;;;;15.50;14.05;;;;;;;;;;4919255;29;20131;-67
2023/04/22 09:10:35;;;;;;;16.23;14.70;;;;;;;;;;4924328;29;20418;-67
2023/04/22 09:13:03;;;;;;;15.32;13.82;;;;;;;;;;4932596;29;20143;-68
2023/04/22 09:15:29;;;;;;;15.70;14.20;;;;;;;;;;4933419;29;20062;-68
2023/04/22 09:17:57;;;;;;;14.75;13.38;;;;;;;;;;4923178;29;20059;-67
2023/04/22 09:20:23;;;;;;;;;;;;;;;;;;4932887;29;20087;-71
2023/04/22 09:22:50;;;;;;;14.27;12.88;;;;;;;;;;4923224;29;19933;-71
2023/04/22 09:25:20;;;;;;;15.20;13.70;;;;;;;;;;4918928;29;20424;-68
2023/04/22 09:27:48;;;;;;;16.67;15.07;;;;;;;;;;4917375;29;20511;-67
2023/04/22 09:30:17;;;;;;;16.13;14.63;;;;;;;;;;4933542;29;20051;-68
2023/04/22 09:32:50;;;;;;;17.73;15.93;;;;;;;;;;4934291;29;20065;-65
2023/04/22 09:35:22;;;;;;;18.77;17.05;;;;;;;;;;4934534;29;20052;-68
2023/04/22 09:37:51;;;;;;;18.73;16.60;;;;;;;;;;4934211;29;20135;-68
2023/04/22 09:40:18;;;;;;;20.55;18.45;;;;;;;;;;4925031;29;20139;-67
2023/04/22 09:42:51;;;;;;;20.70;18.60;;;;;;;;;;4924916;29;20134;-66
2023/04/22 09:45:44;;;;;;;18.80;17.02;;;;;;;;;;4932549;29;20126;-66
2023/04/22 09:48:17;;;;;;;21.85;19.60;;;;;;;;;;4930330;29;20059;-67
2023/04/22 09:50:45;;;;;;;21.35;19.25;;;;;;;;;;4932893;29;20156;-67
2023/04/22 09:53:21;;;;;;;23.60;21.20;;;;;;;;;;4933072;29;20070;-67
2023/04/22 09:55:51;;;;;;;25.40;22.70;;;;;;;;;;4933370;29;20515;-66
2023/04/22 09:58:18;;;;;;;26.13;23.38;;;;;;;;;;4932586;29;20142;-64
2023/04/22 10:00:47;;;;;;;27.70;24.67;;;;;;;;;;4932833;29;20512;-65
2023/04/22 10:03:14;;;;;;;28.20;24.77;;;;;;;;;;4933657;29;20130;-64
2023/04/22 10:05:41;;;;;;;27.35;22.50;;;;;;;;;;4934000;29;20056;-64
2023/04/22 10:08:09;;;;;;;29.10;24.50;;;;;;;;;;4930413;29;20055;-64
2023/04/22 10:10:36;;;;;;;28.02;24.92;;;;;;;;;;4934173;29;20639;-62
2023/04/22 10:13:03;;;;;;;27.55;24.55;;;;;;;;;;4932096;29;20411;-63
2023/04/22 10:15:49;;;;;;;27.17;24.25;;;;;;;;;;4934048;29;20052;-63
2023/04/22 10:18:18;;;;;;;26.02;23.33;;;;;;;;;;4933748;29;20106;-64
2023/04/22 10:20:44;;;;;;;27.55;23.77;;;;;;;;;;4933680;29;20054;-64
2023/04/22 10:23:12;;;;;;;26.27;23.47;;;;;;;;;;4933972;29;20091;-63
2023/04/22 10:25:39;;;;;;;26.27;23.58;;;;;;;;;;4933914;29;20058;-64
2023/04/22 10:28:07;;;;;;;25.40;22.80;;;;;;;;;;4933701;29;20070;-64
2023/04/22 10:30:35;;;;;;;24.45;21.95;;;;;;;;;;4932596;29;20058;-63
2023/04/22 10:33:20;;;;;;;23.98;21.42;;;;;;;;;;4933539;29;20563;-63
2023/04/22 10:36:07;;;;;;;24.67;22.15;;;;;;;;;;4933827;29;20483;-63
2023/04/22 10:38:33;;;;;;;22.67;20.38;;;;;;;;;;4933658;29;20055;-64
2023/04/22 10:41:00;;;;;;;21.45;19.35;;;;;;;;;;4933949;29;20059;-63
2023/04/22 10:43:39;;;;;;;19.33;17.47;;;;;;;;;;4937656;29;20043;-63
2023/04/22 10:46:05;;;;;;;18.83;17.02;;;;;;;;;;4937544;29;20131;-63
2023/04/22 10:48:48;;;;;;;17.52;15.93;;;;;;;;;;4936023;29;20052;-64
2023/04/22 10:51:50;;;;;;;17.15;15.65;;;;;;;;;;4937488;29;20170;-63
2023/04/22 10:54:26;;;;;;;16.42;14.82;;;;;;;;;;4878287;29;20623;-63
2023/04/22 10:56:59;;;;;;;16.17;14.68;;;;;;;;;;4921441;29;20495;-63
2023/04/22 10:59:25;;;;;;;14.15;12.93;;;;;;;;;;4937327;29;20061;-64
2023/04/22 11:01:52;;;;;;;15.10;13.77;;;;;;;;;;4937099;29;20066;-63
2023/04/22 11:04:19;;;;;;;13.48;12.38;;;;;;;;;;4936997;29;20047;-64
2023/04/22 11:07:06;;;;;;;14.00;12.80;;;;;;;;;;4936535;29;20131;-64
2023/04/22 11:09:32;;;;;;;15.20;13.82;;;;;;;;;;4930302;29;20040;-67
2023/04/22 11:12:30;;;;;;;16.50;14.80;;;;;;;;;;4932544;29;20047;-66
2023/04/22 11:14:57;;;;;;;13.40;12.20;;;;;;;;;;4893940;29;20051;-66
2023/04/22 11:17:24;;;;;;;14.77;13.48;;;;;;;;;;4931900;29;20637;-66
2023/04/22 11:19:55;;;;;;;13.98;12.77;;;;;;;;;;4937033;29;20448;-66
2023/04/22 11:22:22;;;;;;;14.23;12.98;;;;;;;;;;4936851;29;20114;-66
2023/04/22 11:24:52;;;;;;;13.35;12.15;;;;;;;;;;4935409;29;20527;-67
2023/04/22 11:27:25;;;;;;;14.70;13.38;;;;;;;;;;4936519;29;20099;-66
2023/04/22 11:30:03;;;;;;;13.77;12.60;;;;;;;;;;4935574;29;20130;-67
2023/04/22 11:32:30;;;;;;;14.90;13.60;;;;;;;;;;4936386;29;20500;-66
2023/04/22 11:34:57;;;;;;;16.05;14.55;;;;;;;;;;4936793;29;20126;-66
2023/04/22 11:37:24;;;;;;;15.10;13.60;;;;;;;;;;4936669;29;20051;-67
2023/04/22 11:39:51;;;;;;;15.35;14.05;;;;;;;;;;4936292;29;20131;-65
2023/04/22 11:42:37;;;;;;;;;;;;;;;;;;4936789;29;20051;-66
2023/04/22 11:45:04;;;;;;;14.52;13.23;;;;;;;;;;4936654;29;19929;-66
2023/04/22 11:47:31;;;;;;;15.38;13.98;;;;;;;;;;4936150;29;20518;-66
2023/04/22 11:50:00;;;;;;;14.07;12.88;;;;;;;;;;4936307;29;20488;-67
2023/04/22 11:52:46;;;;;;;14.75;13.55;;;;;;;;;;4935318;29;20500;-66
2023/04/22 11:55:23;;;;;;;13.75;12.65;;;;;;;;;;4936322;29;20056;-66
2023/04/22 11:57:51;;;;;;;14.70;13.43;;;;;;;;;;4935984;29;20914;-66
2023/04/22 12:00:18;;;;;;;12.73;11.63;;;;;;;;;;4923899;29;20465;-67
2023/04/22 12:02:53;;;;;;;9.70;8.90;;;;;;;;;;4935282;29;20091;-66
2023/04/22 12:05:20;;;;;;;9.57;8.77;;;;;;;;;;4935676;29;20134;-67
2023/04/22 12:07:49;;;;;;;9.60;8.80;;;;;;;;;;4935726;29;20052;-66
2023/04/22 12:10:15;;;;;;;9.25;8.48;;;;;;;;;;4936117;29;20047;-66
2023/04/22 12:12:41;;;;;;;10.13;9.23;;;;;;;;;;4935637;29;20050;-66
2023/04/22 12:15:09;;;;;;;10.10;9.20;;;;;;;;;;4928191;29;20297;-66
2023/04/22 12:17:39;;;;;;;9.65;8.75;;;;;;;;;;4917422;29;20103;-66
2023/04/22 12:20:10;;;;;;;9.73;8.75;;;;;;;;;;4934573;29;20119;-66
2023/04/22 12:22:37;;;;;;;9.60;8.80;;;;;;;;;;4922895;29;20044;-66
2023/04/22 12:25:04;;;;;;;9.40;8.50;;;;;;;;;;4933256;29;20086;-66
2023/04/22 12:27:30;;;;;;;9.73;8.93;;;;;;;;;;4935306;29;20143;-66
2023/04/22 12:29:57;;;;;;;11.35;10.25;;;;;;;;;;4935972;29;20052;-66
2023/04/22 12:32:24;;;;;;;10.50;9.60;;;;;;;;;;4935050;29;20056;-66
2023/04/22 12:34:51;;;;;;;11.02;10.13;;;;;;;;;;4935844;29;20052;-66
2023/04/22 12:37:17;;;;;;;11.10;10.15;;;;;;;;;;4934998;29;20134;-66
2023/04/22 12:39:44;;;;;;;10.70;9.70;;;;;;;;;;4935804;29;20142;-66
2023/04/22 12:42:11;;;;;;;11.05;10.02;;;;;;;;;;4935524;29;20455;-66
2023/04/22 12:44:37;;;;;;;10.38;9.52;;;;;;;;;;4935838;29;20047;-66
2023/04/22 12:47:04;;;;;;;10.98;10.00;;;;;;;;;;4935418;29;20052;-66
2023/04/22 12:49:30;;;;;;;10.70;9.80;;;;;;;;;;4935700;29;20054;-66
2023/04/22 12:51:56;;;;;;;10.60;9.70;;;;;;;;;;4935708;29;20051;-67
2023/04/22 12:54:23;;;;;;;9.82;9.02;;;;;;;;;;4935109;29;20059;-67
2023/04/22 12:56:49;;;;;;;10.07;9.27;;;;;;;;;;4935442;29;20131;-67
2023/04/22 12:59:16;;;;;;;9.50;8.70;;;;;;;;;;4935214;29;20062;-67
2023/04/22 13:01:42;;;;;;;8.88;8.15;;;;;;;;;;4935359;29;20091;-66
2023/04/22 13:04:09;;;;;;;8.45;7.75;;;;;;;;;;4934667;29;20060;-67
2023/04/22 13:06:36;;;;;;;8.05;7.45;;;;;;;;;;4935341;29;20051;-66
2023/04/22 13:09:02;;;;;;;;;;;;;;;;;;4934704;29;20067;-66
2023/04/22 13:11:28;;;;;;;9.48;8.75;;;;;;;;;;4935132;29;20290;-66
2023/04/22 13:13:55;;;;;;;8.80;8.10;;;;;;;;;;4934866;29;20043;-66
2023/04/22 13:16:21;;;;;;;10.43;9.47;;;;;;;;;;4935280;29;20060;-66
2023/04/22 13:18:48;;;;;;;10.27;9.47;;;;;;;;;;4934581;29;20095;-66
2023/04/22 13:21:14;;;;;;;9.50;8.60;;;;;;;;;;4935323;29;20294;-66
2023/04/22 13:23:41;;;;;;;9.30;8.50;;;;;;;;;;4934438;29;20048;-66
2023/04/22 13:26:07;;;;;;;8.23;7.57;;;;;;;;;;4935426;29;20043;-66
2023/04/22 13:28:33;;;;;;;8.90;8.13;;;;;;;;;;4934339;29;20052;-66
2023/04/22 13:31:00;;;;;;;9.13;8.43;;;;;;;;;;4935161;29;20139;-66
2023/04/22 13:33:26;;;;;;;8.87;8.17;;;;;;;;;;4934355;29;20551;-66
2023/04/22 13:35:52;;;;;;;8.18;7.47;;;;;;;;;;4934784;29;20292;-66
2023/04/22 13:38:19;;;;;;;8.77;8.07;;;;;;;;;;4934336;29;20065;-66
2023/04/22 13:40:45;;;;;;;8.25;7.55;;;;;;;;;;4934697;29;20566;-66
2023/04/22 13:43:12;;;;;;;7.38;6.78;;;;;;;;;;4934385;29;20423;-66
2023/04/22 13:45:39;;;;;;;8.30;7.60;;;;;;;;;;4934702;29;20101;-66
2023/04/22 13:48:05;;;;;;;8.95;8.20;;;;;;;;;;4934323;29;20082;-66
2023/04/22 13:50:33;;;;;;;7.95;7.18;;;;;;;;;;4934879;29;20060;-66
2023/04/22 13:52:59;;;;;;;7.88;7.20;;;;;;;;;;4933929;29;20054;-66
2023/04/22 13:55:26;;;;;;;7.37;6.77;;;;;;;;;;4934509;29;20407;-66
2023/04/22 13:57:52;;;;;;;5.67;5.27;;;;;;;;;;4933409;29;20083;-66
2023/04/22 14:00:19;;;;;;;5.97;5.53;;;;;;;;;;4934144;29;20381;-66
2023/04/22 14:02:46;;;;;;;6.57;5.97;;;;;;;;;;4933637;29;20055;-66
2023/04/22 14:05:13;;;;;;;6.33;5.77;;;;;;;;;;4932980;29;20071;-66
2023/04/22 14:07:39;;;;;;;6.50;5.95;;;;;;;;;;4919990;29;20373;-66
2023/04/22 14:10:07;;;;;;;7.07;6.45;;;;;;;;;;4933804;29;20492;-66
2023/04/22 14:12:33;;;;;;;7.63;7.00;;;;;;;;;;4934024;29;20048;-67
2023/04/22 14:15:00;;;;;;;7.32;6.72;;;;;;;;;;4933750;29;20043;-66
2023/04/22 14:17:26;;;;;;;7.85;7.15;;;;;;;;;;4939344;29;20051;-66
2023/04/22 14:19:53;;;;;;;7.18;6.65;;;;;;;;;;4939980;29;20408;-66
2023/04/22 14:22:19;;;;;;;8.07;7.38;;;;;;;;;;4940239;29;20040;-66
2023/04/22 14:24:47;;;;;;;8.23;7.45;;;;;;;;;;4940168;29;20051;-67
2023/04/22 14:27:13;;;;;;;7.10;6.50;;;;;;;;;;4940203;29;20043;-66
2023/04/22 14:29:40;;;;;;;7.60;7.00;;;;;;;;;;4940265;29;20452;-66
2023/04/22 14:32:07;;;;;;;7.00;6.30;;;;;;;;;;4940216;29;20055;-65